sensor_id;sensor_type;location;lat;lon;timestamp;temperature;humidity
7341;DHT22;6870;50.944;6.932;2024-01-15T00:00:39;17.70;30.70
7341;DHT22;6870;50.944;6.932;2024-01-15T00:03:07;17.80;31.90
7341;DHT22;6870;50.944;6.932;2024-01-15T00:05:36;17.70;31.30
7341;DHT22;6870;50.944;6.932;2024-01-15T00:08:05;17.70;30.50
7341;DHT22;6870;50.944;6.932;2024-01-15T00:10:34;17.60;31.30
7341;DHT22;6870;50.944;6.932;2024-01-15T00:13:03;17.50;31.60
7341;DHT22;6870;50.944;6.932;2024-01-15T00:15:31;17.70;31.70
7341;DHT22;6870;50.944;6.932;2024-01-15T00:18:00;17.50;30.40
7341;DHT22;6870;50.944;6.932;2024-01-15T00:20:28;17.70;31.20
7341;DHT22;6870;50.944;6.932;2024-01-15T00:22:59;17.70;30.50
7341;DHT22;6870;50.944;6.932;2024-01-15T00:25:28;17.60;30.80
7341;DHT22;6870;50.944;6.932;2024-01-15T00:27:56;17.40;30.30
7341;DHT22;6870;50.944;6.932;2024-01-15T00:30:25;17.60;31.60
7341;DHT22;6870;50.944;6.932;2024-01-15T00:32:53;17.90;30.70
7341;DHT22;6870;50.944;6.932;2024-01-15T00:35:22;17.50;30.50
7341;DHT22;6870;50.944;6.932;2024-01-15T00:37:50;17.80;31.30
7341;DHT22;6870;50.944;6.932;2024-01-15T00:40:18;17.60;31.10
7341;DHT22;6870;50.944;6.932;2024-01-15T00:42:46;17.60;31.00
7341;DHT22;6870;50.944;6.932;2024-01-15T00:45:14;17.60;30.00
7341;DHT22;6870;50.944;6.932;2024-01-15T00:47:44;17.80;31.10
7341;DHT22;6870;50.944;6.932;2024-01-15T00:50:12;17.70;30.30
7341;DHT22;6870;50.944;6.932;2024-01-15T00:52:40;17.70;30.00
7341;DHT22;6870;50.944;6.932;2024-01-15T00:55:08;17.80;30.00
7341;DHT22;6870;50.944;6.932;2024-01-15T00:57:36;18.00;31.00
7341;DHT22;6870;50.944;6.932;2024-01-15T01:00:06;17.90;30.80
7341;DHT22;6870;50.944;6.932;2024-01-15T01:02:35;17.70;30.30
7341;DHT22;6870;50.944;6.932;2024-01-15T01:05:05;18.00;30.70
7341;DHT22;6870;50.944;6.932;2024-01-15T01:07:34;17.80;30.30
7341;DHT22;6870;50.944;6.932;2024-01-15T01:10:03;17.90;30.50
7341;DHT22;6870;50.944;6.932;2024-01-15T01:12:31;18.00;30.10
7341;DHT22;6870;50.944;6.932;2024-01-15T01:14:59;17.70;30.70
7341;DHT22;6870;50.944;6.932;2024-01-15T01:17:28;17.80;31.00
7341;DHT22;6870;50.944;6.932;2024-01-15T01:19:57;17.80;31.30
7341;DHT22;6870;50.944;6.932;2024-01-15T01:22:27;17.80;31.70
7341;DHT22;6870;50.944;6.932;2024-01-15T01:24:55;17.80;31.70
7341;DHT22;6870;50.944;6.932;2024-01-15T01:27:23;17.60;31.80
7341;DHT22;6870;50.944;6.932;2024-01-15T01:29:51;17.80;32.20
7341;DHT22;6870;50.944;6.932;2024-01-15T01:32:20;17.80;32.40
7341;DHT22;6870;50.944;6.932;2024-01-15T01:34:48;17.90;32.00
7341;DHT22;6870;50.944;6.932;2024-01-15T01:37:16;17.70;32.60
7341;DHT22;6870;50.944;6.932;2024-01-15T01:39:45;17.70;31.60
7341;DHT22;6870;50.944;6.932;2024-01-15T01:42:14;17.90;33.10
7341;DHT22;6870;50.944;6.932;2024-01-15T01:44:42;17.60;32.90
7341;DHT22;6870;50.944;6.932;2024-01-15T01:47:10;17.80;33.20
7341;DHT22;6870;50.944;6.932;2024-01-15T01:49:38;17.60;32.00
7341;DHT22;6870;50.944;6.932;2024-01-15T01:52:06;17.70;32.70
7341;DHT22;6870;50.944;6.932;2024-01-15T01:54:35;17.60;33.20
7341;DHT22;6870;50.944;6.932;2024-01-15T01:57:07;17.80;33.40
7341;DHT22;6870;50.944;6.932;2024-01-15T01:59:36;17.70;33.30
7341;DHT22;6870;50.944;6.932;2024-01-15T02:02:05;17.70;33.40
7341;DHT22;6870;50.944;6.932;2024-01-15T02:04:34;17.50;33.20
7341;DHT22;6870;50.944;6.932;2024-01-15T02:07:04;17.50;33.10
7341;DHT22;6870;50.944;6.932;2024-01-15T02:09:32;17.60;33.30
7341;DHT22;6870;50.944;6.932;2024-01-15T02:12:01;17.50;32.60
7341;DHT22;6870;50.944;6.932;2024-01-15T02:14:30;17.50;33.60
7341;DHT22;6870;50.944;6.932;2024-01-15T02:16:58;17.80;33.90
7341;DHT22;6870;50.944;6.932;2024-01-15T02:19:27;17.50;33.60
7341;DHT22;6870;50.944;6.932;2024-01-15T02:21:55;17.70;33.00
7341;DHT22;6870;50.944;6.932;2024-01-15T02:24:25;17.50;32.80
7341;DHT22;6870;50.944;6.932;2024-01-15T02:26:53;17.60;34.00
7341;DHT22;6870;50.944;6.932;2024-01-15T02:29:21;17.50;33.50
7341;DHT22;6870;50.944;6.932;2024-01-15T02:31:50;17.60;34.10
7341;DHT22;6870;50.944;6.932;2024-01-15T02:34:18;17.50;33.70
7341;DHT22;6870;50.944;6.932;2024-01-15T02:36:46;17.50;34.00
7341;DHT22;6870;50.944;6.932;2024-01-15T02:39:14;17.60;33.40
7341;DHT22;6870;50.944;6.932;2024-01-15T02:41:43;17.40;33.70
7341;DHT22;6870;50.944;6.932;2024-01-15T02:44:11;17.40;34.00
7341;DHT22;6870;50.944;6.932;2024-01-15T02:46:39;17.70;34.10
7341;DHT22;6870;50.944;6.932;2024-01-15T02:49:07;17.60;33.80
7341;DHT22;6870;50.944;6.932;2024-01-15T02:51:35;17.30;33.50
7341;DHT22;6870;50.944;6.932;2024-01-15T02:54:04;17.60;34.10
7341;DHT22;6870;50.944;6.932;2024-01-15T02:56:32;17.60;33.70
7341;DHT22;6870;50.944;6.932;2024-01-15T02:59:01;17.70;34.40
7341;DHT22;6870;50.944;6.932;2024-01-15T03:01:30;17.60;34.00
7341;DHT22;6870;50.944;6.932;2024-01-15T03:03:58;17.50;34.20
7341;DHT22;6870;50.944;6.932;2024-01-15T03:06:26;17.50;34.00
7341;DHT22;6870;50.944;6.932;2024-01-15T03:08:54;17.60;34.10
7341;DHT22;6870;50.944;6.932;2024-01-15T03:11:22;17.60;34.70
7341;DHT22;6870;50.944;6.932;2024-01-15T03:13:50;17.60;35.00
7341;DHT22;6870;50.944;6.932;2024-01-15T03:16:20;17.50;34.20
7341;DHT22;6870;50.944;6.932;2024-01-15T03:18:48;17.40;34.70
7341;DHT22;6870;50.944;6.932;2024-01-15T03:21:16;17.30;34.80
7341;DHT22;6870;50.944;6.932;2024-01-15T03:23:44;17.50;34.90
7341;DHT22;6870;50.944;6.932;2024-01-15T03:26:12;17.40;35.40
7341;DHT22;6870;50.944;6.932;2024-01-15T03:28:40;17.50;35.30
7341;DHT22;6870;50.944;6.932;2024-01-15T03:31:08;17.50;35.70
7341;DHT22;6870;50.944;6.932;2024-01-15T03:33:38;17.40;35.50
7341;DHT22;6870;50.944;6.932;2024-01-15T03:36:07;17.60;35.10
7341;DHT22;6870;50.944;6.932;2024-01-15T03:38:40;17.70;35.90
7341;DHT22;6870;50.944;6.932;2024-01-15T03:41:09;17.30;36.00
7341;DHT22;6870;50.944;6.932;2024-01-15T03:43:37;17.70;36.40
7341;DHT22;6870;50.944;6.932;2024-01-15T03:46:12;17.50;35.50
7341;DHT22;6870;50.944;6.932;2024-01-15T03:48:42;17.50;36.20
7341;DHT22;6870;50.944;6.932;2024-01-15T03:51:10;17.50;35.90
7341;DHT22;6870;50.944;6.932;2024-01-15T03:53:38;17.40;36.00
7341;DHT22;6870;50.944;6.932;2024-01-15T03:56:06;17.50;35.90
7341;DHT22;6870;50.944;6.932;2024-01-15T03:58:34;17.60;36.50
7341;DHT22;6870;50.944;6.932;2024-01-15T04:01:03;17.50;36.40
7341;DHT22;6870;50.944;6.932;2024-01-15T04:03:31;17.50;36.80
7341;DHT22;6870;50.944;6.932;2024-01-15T04:06:00;17.60;36.90
7341;DHT22;6870;50.944;6.932;2024-01-15T04:08:29;17.80;37.10
7341;DHT22;6870;50.944;6.932;2024-01-15T04:10:56;17.60;36.00
7341;DHT22;6870;50.944;6.932;2024-01-15T04:13:25;17.60;36.50
7341;DHT22;6870;50.944;6.932;2024-01-15T04:15:53;17.50;36.40
7341;DHT22;6870;50.944;6.932;2024-01-15T04:18:21;17.40;37.00
7341;DHT22;6870;50.944;6.932;2024-01-15T04:20:49;17.40;36.80
7341;DHT22;6870;50.944;6.932;2024-01-15T04:23:18;17.60;37.10
7341;DHT22;6870;50.944;6.932;2024-01-15T04:25:46;17.60;36.60
7341;DHT22;6870;50.944;6.932;2024-01-15T04:28:14;17.60;36.40
7341;DHT22;6870;50.944;6.932;2024-01-15T04:30:42;17.60;36.90
7341;DHT22;6870;50.944;6.932;2024-01-15T04:33:11;17.30;36.70
7341;DHT22;6870;50.944;6.932;2024-01-15T04:35:39;17.40;36.40
7341;DHT22;6870;50.944;6.932;2024-01-15T04:38:07;17.50;37.10
7341;DHT22;6870;50.944;6.932;2024-01-15T04:40:36;17.60;36.10
7341;DHT22;6870;50.944;6.932;2024-01-15T04:43:04;17.50;37.00
7341;DHT22;6870;50.944;6.932;2024-01-15T04:45:33;17.50;36.30
7341;DHT22;6870;50.944;6.932;2024-01-15T04:48:01;17.60;36.10
7341;DHT22;6870;50.944;6.932;2024-01-15T04:50:30;17.60;37.20
7341;DHT22;6870;50.944;6.932;2024-01-15T04:52:58;17.50;37.10
7341;DHT22;6870;50.944;6.932;2024-01-15T04:55:26;17.60;36.70
7341;DHT22;6870;50.944;6.932;2024-01-15T04:57:55;17.60;37.40
7341;DHT22;6870;50.944;6.932;2024-01-15T05:00:23;17.40;36.70
7341;DHT22;6870;50.944;6.932;2024-01-15T05:02:51;17.60;37.40
7341;DHT22;6870;50.944;6.932;2024-01-15T05:05:19;17.20;36.40
7341;DHT22;6870;50.944;6.932;2024-01-15T05:07:47;17.50;36.50
7341;DHT22;6870;50.944;6.932;2024-01-15T05:10:15;17.60;37.20
7341;DHT22;6870;50.944;6.932;2024-01-15T05:12:43;17.50;36.60
7341;DHT22;6870;50.944;6.932;2024-01-15T05:15:13;17.50;37.30
7341;DHT22;6870;50.944;6.932;2024-01-15T05:17:41;17.80;36.70
7341;DHT22;6870;50.944;6.932;2024-01-15T05:20:10;17.50;36.80
7341;DHT22;6870;50.944;6.932;2024-01-15T05:22:38;17.40;36.90
7341;DHT22;6870;50.944;6.932;2024-01-15T05:25:07;17.60;36.10
7341;DHT22;6870;50.944;6.932;2024-01-15T05:27:35;17.60;36.50
7341;DHT22;6870;50.944;6.932;2024-01-15T05:30:03;17.60;36.80
7341;DHT22;6870;50.944;6.932;2024-01-15T05:32:34;17.50;36.20
7341;DHT22;6870;50.944;6.932;2024-01-15T05:35:02;17.70;36.20
7341;DHT22;6870;50.944;6.932;2024-01-15T05:37:30;17.50;36.50
7341;DHT22;6870;50.944;6.932;2024-01-15T05:39:58;17.40;36.80
7341;DHT22;6870;50.944;6.932;2024-01-15T05:42:27;17.50;36.30
7341;DHT22;6870;50.944;6.932;2024-01-15T05:44:57;17.60;36.80
7341;DHT22;6870;50.944;6.932;2024-01-15T05:47:26;17.50;36.70
7341;DHT22;6870;50.944;6.932;2024-01-15T05:49:56;17.70;37.00
7341;DHT22;6870;50.944;6.932;2024-01-15T05:52:24;17.60;36.60
7341;DHT22;6870;50.944;6.932;2024-01-15T05:54:52;17.70;36.80
7341;DHT22;6870;50.944;6.932;2024-01-15T05:57:20;17.60;36.90
7341;DHT22;6870;50.944;6.932;2024-01-15T05:59:49;17.50;36.80
7341;DHT22;6870;50.944;6.932;2024-01-15T06:02:17;17.50;37.20
7341;DHT22;6870;50.944;6.932;2024-01-15T06:04:45;17.80;36.90
7341;DHT22;6870;50.944;6.932;2024-01-15T06:07:14;17.70;37.10
7341;DHT22;6870;50.944;6.932;2024-01-15T06:09:42;17.30;36.50
7341;DHT22;6870;50.944;6.932;2024-01-15T06:12:10;17.60;37.00
7341;DHT22;6870;50.944;6.932;2024-01-15T06:14:39;17.50;37.90
7341;DHT22;6870;50.944;6.932;2024-01-15T06:17:08;17.60;37.80
7341;DHT22;6870;50.944;6.932;2024-01-15T06:19:36;17.60;37.00
7341;DHT22;6870;50.944;6.932;2024-01-15T06:22:04;17.60;37.40
7341;DHT22;6870;50.944;6.932;2024-01-15T06:24:33;17.50;37.80
7341;DHT22;6870;50.944;6.932;2024-01-15T06:27:02;17.50;37.80
7341;DHT22;6870;50.944;6.932;2024-01-15T06:29:30;17.70;37.70
7341;DHT22;6870;50.944;6.932;2024-01-15T06:31:58;17.70;38.00
7341;DHT22;6870;50.944;6.932;2024-01-15T06:34:26;17.50;37.50
7341;DHT22;6870;50.944;6.932;2024-01-15T06:36:54;17.40;37.80
7341;DHT22;6870;50.944;6.932;2024-01-15T06:39:22;17.70;38.70
7341;DHT22;6870;50.944;6.932;2024-01-15T06:41:51;17.80;37.80
7341;DHT22;6870;50.944;6.932;2024-01-15T06:44:19;17.60;37.90
7341;DHT22;6870;50.944;6.932;2024-01-15T06:46:48;17.50;37.80
7341;DHT22;6870;50.944;6.932;2024-01-15T06:49:16;17.70;38.40
7341;DHT22;6870;50.944;6.932;2024-01-15T06:51:44;17.50;37.70
7341;DHT22;6870;50.944;6.932;2024-01-15T06:54:15;17.60;37.90
7341;DHT22;6870;50.944;6.932;2024-01-15T06:56:43;17.80;38.20
7341;DHT22;6870;50.944;6.932;2024-01-15T06:59:13;17.60;38.20
7341;DHT22;6870;50.944;6.932;2024-01-15T07:01:45;17.60;38.00
7341;DHT22;6870;50.944;6.932;2024-01-15T07:04:14;17.30;38.30
7341;DHT22;6870;50.944;6.932;2024-01-15T07:06:42;17.40;38.00
7341;DHT22;6870;50.944;6.932;2024-01-15T07:09:10;17.60;38.00
7341;DHT22;6870;50.944;6.932;2024-01-15T07:11:38;17.40;37.70
7341;DHT22;6870;50.944;6.932;2024-01-15T07:14:06;17.60;38.40
7341;DHT22;6870;50.944;6.932;2024-01-15T07:16:36;17.70;39.00
7341;DHT22;6870;50.944;6.932;2024-01-15T07:19:05;17.60;38.20
7341;DHT22;6870;50.944;6.932;2024-01-15T07:21:34;17.70;38.80
7341;DHT22;6870;50.944;6.932;2024-01-15T07:24:02;17.60;38.20
7341;DHT22;6870;50.944;6.932;2024-01-15T07:26:30;17.60;38.60
7341;DHT22;6870;50.944;6.932;2024-01-15T07:28:58;17.70;38.70
7341;DHT22;6870;50.944;6.932;2024-01-15T07:31:27;17.30;38.10
7341;DHT22;6870;50.944;6.932;2024-01-15T07:33:56;17.40;38.70
7341;DHT22;6870;50.944;6.932;2024-01-15T07:36:25;17.30;38.50
7341;DHT22;6870;50.944;6.932;2024-01-15T07:38:53;17.60;38.40
7341;DHT22;6870;50.944;6.932;2024-01-15T07:41:21;17.80;39.10
7341;DHT22;6870;50.944;6.932;2024-01-15T07:43:50;17.50;38.20
7341;DHT22;6870;50.944;6.932;2024-01-15T07:46:18;17.60;38.60
7341;DHT22;6870;50.944;6.932;2024-01-15T07:48:46;17.50;38.60
7341;DHT22;6870;50.944;6.932;2024-01-15T07:51:15;17.80;37.80
7341;DHT22;6870;50.944;6.932;2024-01-15T07:53:43;17.60;37.50
7341;DHT22;6870;50.944;6.932;2024-01-15T07:56:12;17.50;37.20
7341;DHT22;6870;50.944;6.932;2024-01-15T07:58:40;17.70;36.80
7341;DHT22;6870;50.944;6.932;2024-01-15T08:01:08;17.50;36.10
7341;DHT22;6870;50.944;6.932;2024-01-15T08:03:36;17.60;35.60
7341;DHT22;6870;50.944;6.932;2024-01-15T08:06:05;17.50;35.40
7341;DHT22;6870;50.944;6.932;2024-01-15T08:08:38;17.80;35.60
7341;DHT22;6870;50.944;6.932;2024-01-15T08:11:06;17.50;35.10
7341;DHT22;6870;50.944;6.932;2024-01-15T08:13:34;17.40;34.70
7341;DHT22;6870;50.944;6.932;2024-01-15T08:16:02;17.60;34.10
7341;DHT22;6870;50.944;6.932;2024-01-15T08:18:30;17.60;34.00
7341;DHT22;6870;50.944;6.932;2024-01-15T08:20:58;17.50;34.00
7341;DHT22;6870;50.944;6.932;2024-01-15T08:23:26;17.40;33.70
7341;DHT22;6870;50.944;6.932;2024-01-15T08:25:59;17.30;33.00
7341;DHT22;6870;50.944;6.932;2024-01-15T08:28:27;17.50;33.30
7341;DHT22;6870;50.944;6.932;2024-01-15T08:30:55;17.50;34.00
7341;DHT22;6870;50.944;6.932;2024-01-15T08:33:23;17.60;32.80
7341;DHT22;6870;50.944;6.932;2024-01-15T08:35:52;17.80;33.30
7341;DHT22;6870;50.944;6.932;2024-01-15T08:38:20;17.50;32.70
7341;DHT22;6870;50.944;6.932;2024-01-15T08:40:49;17.60;33.70
7341;DHT22;6870;50.944;6.932;2024-01-15T08:43:19;17.60;32.60
7341;DHT22;6870;50.944;6.932;2024-01-15T08:45:47;17.60;32.50
7341;DHT22;6870;50.944;6.932;2024-01-15T08:48:15;17.60;32.30
7341;DHT22;6870;50.944;6.932;2024-01-15T08:50:43;17.50;32.30
7341;DHT22;6870;50.944;6.932;2024-01-15T08:53:12;17.40;32.90
7341;DHT22;6870;50.944;6.932;2024-01-15T08:55:41;17.60;32.60
7341;DHT22;6870;50.944;6.932;2024-01-15T08:58:10;17.70;32.60
7341;DHT22;6870;50.944;6.932;2024-01-15T09:00:40;17.50;32.10
7341;DHT22;6870;50.944;6.932;2024-01-15T09:03:08;17.70;32.70
7341;DHT22;6870;50.944;6.932;2024-01-15T09:05:36;17.90;31.80
7341;DHT22;6870;50.944;6.932;2024-01-15T09:08:05;17.80;32.20
7341;DHT22;6870;50.944;6.932;2024-01-15T09:10:33;17.60;32.20
7341;DHT22;6870;50.944;6.932;2024-01-15T09:13:01;17.70;32.30
7341;DHT22;6870;50.944;6.932;2024-01-15T09:15:30;17.60;32.50
7341;DHT22;6870;50.944;6.932;2024-01-15T09:18:00;17.60;31.20
7341;DHT22;6870;50.944;6.932;2024-01-15T09:20:33;17.80;32.00
7341;DHT22;6870;50.944;6.932;2024-01-15T09:23:01;17.50;31.70
7341;DHT22;6870;50.944;6.932;2024-01-15T09:25:30;17.70;32.50
7341;DHT22;6870;50.944;6.932;2024-01-15T09:27:58;17.60;31.50
7341;DHT22;6870;50.944;6.932;2024-01-15T09:30:26;17.60;31.70
7341;DHT22;6870;50.944;6.932;2024-01-15T09:32:54;17.80;31.80
7341;DHT22;6870;50.944;6.932;2024-01-15T09:35:25;17.70;31.70
7341;DHT22;6870;50.944;6.932;2024-01-15T09:37:53;17.80;32.50
7341;DHT22;6870;50.944;6.932;2024-01-15T09:40:22;17.70;31.80
7341;DHT22;6870;50.944;6.932;2024-01-15T09:42:52;18.00;32.00
7341;DHT22;6870;50.944;6.932;2024-01-15T09:45:20;17.90;32.00
7341;DHT22;6870;50.944;6.932;2024-01-15T09:47:49;18.00;32.70
7341;DHT22;6870;50.944;6.932;2024-01-15T09:50:17;18.00;31.80
7341;DHT22;6870;50.944;6.932;2024-01-15T09:52:47;18.00;33.00
7341;DHT22;6870;50.944;6.932;2024-01-15T09:55:17;18.00;33.10
7341;DHT22;6870;50.944;6.932;2024-01-15T09:57:45;18.20;31.80
7341;DHT22;6870;50.944;6.932;2024-01-15T10:00:14;18.10;32.20
7341;DHT22;6870;50.944;6.932;2024-01-15T10:02:45;18.00;32.60
7341;DHT22;6870;50.944;6.932;2024-01-15T10:05:13;18.00;31.90
7341;DHT22;6870;50.944;6.932;2024-01-15T10:07:42;18.00;32.60
7341;DHT22;6870;50.944;6.932;2024-01-15T10:10:12;18.30;33.00
7341;DHT22;6870;50.944;6.932;2024-01-15T10:12:40;17.80;32.20
7341;DHT22;6870;50.944;6.932;2024-01-15T10:15:10;18.00;31.50
7341;DHT22;6870;50.944;6.932;2024-01-15T10:17:40;18.30;32.00
7341;DHT22;6870;50.944;6.932;2024-01-15T10:20:10;18.10;32.80
7341;DHT22;6870;50.944;6.932;2024-01-15T10:22:41;18.10;32.50
7341;DHT22;6870;50.944;6.932;2024-01-15T10:25:12;18.10;31.70
7341;DHT22;6870;50.944;6.932;2024-01-15T10:27:41;18.20;32.30
7341;DHT22;6870;50.944;6.932;2024-01-15T10:30:10;18.30;33.00
7341;DHT22;6870;50.944;6.932;2024-01-15T10:32:41;18.20;33.20
7341;DHT22;6870;50.944;6.932;2024-01-15T10:35:10;18.00;31.90
7341;DHT22;6870;50.944;6.932;2024-01-15T10:37:38;18.30;32.70
7341;DHT22;6870;50.944;6.932;2024-01-15T10:40:07;17.90;32.10
7341;DHT22;6870;50.944;6.932;2024-01-15T10:42:37;18.40;32.20
7341;DHT22;6870;50.944;6.932;2024-01-15T10:45:06;18.50;32.00
7341;DHT22;6870;50.944;6.932;2024-01-15T10:47:36;18.10;32.20
7341;DHT22;6870;50.944;6.932;2024-01-15T10:50:06;18.00;31.60
7341;DHT22;6870;50.944;6.932;2024-01-15T10:52:35;18.20;32.70
7341;DHT22;6870;50.944;6.932;2024-01-15T10:55:05;18.30;32.30
7341;DHT22;6870;50.944;6.932;2024-01-15T10:57:44;18.20;32.90
7341;DHT22;6870;50.944;6.932;2024-01-15T11:00:13;18.40;32.50
7341;DHT22;6870;50.944;6.932;2024-01-15T11:02:42;18.30;32.60
7341;DHT22;6870;50.944;6.932;2024-01-15T11:05:11;18.40;33.00
7341;DHT22;6870;50.944;6.932;2024-01-15T11:07:40;18.20;32.50
7341;DHT22;6870;50.944;6.932;2024-01-15T11:10:38;18.20;33.00
7341;DHT22;6870;50.944;6.932;2024-01-15T11:13:15;18.50;32.90
7341;DHT22;6870;50.944;6.932;2024-01-15T11:15:57;18.10;32.30
7341;DHT22;6870;50.944;6.932;2024-01-15T11:18:28;18.20;32.40
7341;DHT22;6870;50.944;6.932;2024-01-15T11:21:22;18.10;32.20
7341;DHT22;6870;50.944;6.932;2024-01-15T11:23:53;18.10;32.00
7341;DHT22;6870;50.944;6.932;2024-01-15T11:26:35;18.60;32.50
7341;DHT22;6870;50.944;6.932;2024-01-15T11:29:07;18.20;31.90
7341;DHT22;6870;50.944;6.932;2024-01-15T11:31:58;18.10;30.70
7341;DHT22;6870;50.944;6.932;2024-01-15T11:34:50;18.20;31.70
7341;DHT22;6870;50.944;6.932;2024-01-15T11:37:19;18.20;31.60
7341;DHT22;6870;50.944;6.932;2024-01-15T11:39:48;18.40;31.60
7341;DHT22;6870;50.944;6.932;2024-01-15T11:42:16;18.10;30.50
7341;DHT22;6870;50.944;6.932;2024-01-15T11:44:47;18.20;31.30
7341;DHT22;6870;50.944;6.932;2024-01-15T11:47:15;18.30;31.60
7341;DHT22;6870;50.944;6.932;2024-01-15T11:49:59;18.10;31.60
7341;DHT22;6870;50.944;6.932;2024-01-15T11:52:33;18.10;31.30
7341;DHT22;6870;50.944;6.932;2024-01-15T11:55:10;18.10;30.10
7341;DHT22;6870;50.944;6.932;2024-01-15T11:57:42;18.20;31.60
7341;DHT22;6870;50.944;6.932;2024-01-15T12:00:15;17.90;30.10
7341;DHT22;6870;50.944;6.932;2024-01-15T12:02:45;18.00;30.90
7341;DHT22;6870;50.944;6.932;2024-01-15T12:05:17;18.00;31.30
7341;DHT22;6870;50.944;6.932;2024-01-15T12:07:47;18.30;30.40
7341;DHT22;6870;50.944;6.932;2024-01-15T12:10:18;17.90;30.10
7341;DHT22;6870;50.944;6.932;2024-01-15T12:12:57;18.40;30.50
7341;DHT22;6870;50.944;6.932;2024-01-15T12:15:28;18.20;31.60
7341;DHT22;6870;50.944;6.932;2024-01-15T12:17:58;18.20;32.10
7341;DHT22;6870;50.944;6.932;2024-01-15T12:20:28;18.50;33.00
7341;DHT22;6870;50.944;6.932;2024-01-15T12:22:57;18.70;33.10
7341;DHT22;6870;50.944;6.932;2024-01-15T12:25:30;19.10;31.50
7341;DHT22;6870;50.944;6.932;2024-01-15T12:27:59;19.40;31.50
7341;DHT22;6870;50.944;6.932;2024-01-15T12:30:30;19.40;31.30
7341;DHT22;6870;50.944;6.932;2024-01-15T12:33:01;19.40;31.30
7341;DHT22;6870;50.944;6.932;2024-01-15T12:35:30;19.50;31.40
7341;DHT22;6870;50.944;6.932;2024-01-15T12:38:00;19.80;31.60
7341;DHT22;6870;50.944;6.932;2024-01-15T12:40:31;19.60;32.00
7341;DHT22;6870;50.944;6.932;2024-01-15T12:43:01;19.70;31.50
7341;DHT22;6870;50.944;6.932;2024-01-15T12:45:31;19.70;31.50
7341;DHT22;6870;50.944;6.932;2024-01-15T12:47:59;19.50;31.50
7341;DHT22;6870;50.944;6.932;2024-01-15T12:50:28;19.80;31.60
7341;DHT22;6870;50.944;6.932;2024-01-15T12:52:56;19.60;31.50
7341;DHT22;6870;50.944;6.932;2024-01-15T12:55:26;19.70;31.60
7341;DHT22;6870;50.944;6.932;2024-01-15T12:57:54;19.10;31.10
7341;DHT22;6870;50.944;6.932;2024-01-15T13:02:54;19.60;31.80
7341;DHT22;6870;50.944;6.932;2024-01-15T13:05:25;19.60;31.50
7341;DHT22;6870;50.944;6.932;2024-01-15T13:07:54;19.20;31.20
7341;DHT22;6870;50.944;6.932;2024-01-15T13:10:22;19.20;31.10
7341;DHT22;6870;50.944;6.932;2024-01-15T13:12:52;19.20;31.20
7341;DHT22;6870;50.944;6.932;2024-01-15T13:15:21;18.80;31.40
7341;DHT22;6870;50.944;6.932;2024-01-15T13:17:49;19.30;31.60
7341;DHT22;6870;50.944;6.932;2024-01-15T13:20:19;19.10;31.20
7341;DHT22;6870;50.944;6.932;2024-01-15T13:22:47;18.80;30.90
7341;DHT22;6870;50.944;6.932;2024-01-15T13:25:15;19.10;31.10
7341;DHT22;6870;50.944;6.932;2024-01-15T13:27:43;19.00;31.40
7341;DHT22;6870;50.944;6.932;2024-01-15T13:30:12;18.80;32.30
7341;DHT22;6870;50.944;6.932;2024-01-15T13:32:50;18.70;32.30
7341;DHT22;6870;50.944;6.932;2024-01-15T13:35:19;19.20;31.70
7341;DHT22;6870;50.944;6.932;2024-01-15T13:37:47;18.80;32.60
7341;DHT22;6870;50.944;6.932;2024-01-15T13:40:15;18.90;31.60
7341;DHT22;6870;50.944;6.932;2024-01-15T13:42:46;18.80;32.40
7341;DHT22;6870;50.944;6.932;2024-01-15T13:45:15;19.20;32.00
7341;DHT22;6870;50.944;6.932;2024-01-15T13:47:44;19.20;32.70
7341;DHT22;6870;50.944;6.932;2024-01-15T13:50:12;19.00;31.20
7341;DHT22;6870;50.944;6.932;2024-01-15T13:52:42;19.20;32.40
7341;DHT22;6870;50.944;6.932;2024-01-15T13:55:10;18.90;32.30
7341;DHT22;6870;50.944;6.932;2024-01-15T13:57:38;19.20;31.70
7341;DHT22;6870;50.944;6.932;2024-01-15T14:00:07;19.00;32.20
7341;DHT22;6870;50.944;6.932;2024-01-15T14:02:39;19.00;32.20
7341;DHT22;6870;50.944;6.932;2024-01-15T14:05:08;19.20;31.40
7341;DHT22;6870;50.944;6.932;2024-01-15T14:07:39;19.30;32.20
7341;DHT22;6870;50.944;6.932;2024-01-15T14:10:10;19.00;32.10
7341;DHT22;6870;50.944;6.932;2024-01-15T14:12:38;18.90;32.10
7341;DHT22;6870;50.944;6.932;2024-01-15T14:15:07;19.10;31.20
7341;DHT22;6870;50.944;6.932;2024-01-15T14:17:36;19.10;31.90
7341;DHT22;6870;50.944;6.932;2024-01-15T14:20:06;18.90;32.60
7341;DHT22;6870;50.944;6.932;2024-01-15T14:22:36;19.00;32.40
7341;DHT22;6870;50.944;6.932;2024-01-15T14:25:04;18.70;32.10
7341;DHT22;6870;50.944;6.932;2024-01-15T14:27:34;19.00;31.30
7341;DHT22;6870;50.944;6.932;2024-01-15T14:30:03;18.80;32.20
7341;DHT22;6870;50.944;6.932;2024-01-15T14:32:35;18.90;33.10
7341;DHT22;6870;50.944;6.932;2024-01-15T14:35:04;18.60;31.70
7341;DHT22;6870;50.944;6.932;2024-01-15T14:37:33;18.50;31.90
7341;DHT22;6870;50.944;6.932;2024-01-15T14:40:01;18.90;31.90
7341;DHT22;6870;50.944;6.932;2024-01-15T14:42:29;19.00;32.20
7341;DHT22;6870;50.944;6.932;2024-01-15T14:44:58;18.60;31.60
7341;DHT22;6870;50.944;6.932;2024-01-15T14:47:28;18.90;32.50
7341;DHT22;6870;50.944;6.932;2024-01-15T14:49:56;18.90;32.10
7341;DHT22;6870;50.944;6.932;2024-01-15T14:52:24;19.10;33.40
7341;DHT22;6870;50.944;6.932;2024-01-15T14:54:53;18.80;33.20
7341;DHT22;6870;50.944;6.932;2024-01-15T14:57:22;19.00;33.80
7341;DHT22;6870;50.944;6.932;2024-01-15T14:59:50;18.80;33.70
7341;DHT22;6870;50.944;6.932;2024-01-15T15:02:20;18.90;34.50
7341;DHT22;6870;50.944;6.932;2024-01-15T15:04:48;18.70;33.20
7341;DHT22;6870;50.944;6.932;2024-01-15T15:07:16;18.90;33.20
7341;DHT22;6870;50.944;6.932;2024-01-15T15:09:44;18.80;33.40
7341;DHT22;6870;50.944;6.932;2024-01-15T15:12:13;19.00;33.70
7341;DHT22;6870;50.944;6.932;2024-01-15T15:14:41;19.00;34.00
7341;DHT22;6870;50.944;6.932;2024-01-15T15:17:26;18.90;33.90
7341;DHT22;6870;50.944;6.932;2024-01-15T15:19:54;18.80;33.20
7341;DHT22;6870;50.944;6.932;2024-01-15T15:22:23;18.60;34.00
7341;DHT22;6870;50.944;6.932;2024-01-15T15:24:51;18.60;33.00
7341;DHT22;6870;50.944;6.932;2024-01-15T15:27:19;18.90;33.80
7341;DHT22;6870;50.944;6.932;2024-01-15T15:29:47;18.60;33.00
7341;DHT22;6870;50.944;6.932;2024-01-15T15:32:17;18.50;33.90
7341;DHT22;6870;50.944;6.932;2024-01-15T15:34:46;18.60;33.80
7341;DHT22;6870;50.944;6.932;2024-01-15T15:37:15;18.70;32.90
7341;DHT22;6870;50.944;6.932;2024-01-15T15:39:44;18.80;33.30
7341;DHT22;6870;50.944;6.932;2024-01-15T15:42:12;18.50;33.20
7341;DHT22;6870;50.944;6.932;2024-01-15T15:44:41;18.70;33.20
7341;DHT22;6870;50.944;6.932;2024-01-15T15:47:13;18.60;34.00
7341;DHT22;6870;50.944;6.932;2024-01-15T15:49:42;18.70;34.20
7341;DHT22;6870;50.944;6.932;2024-01-15T15:52:11;18.50;33.30
7341;DHT22;6870;50.944;6.932;2024-01-15T15:54:40;18.90;34.30
7341;DHT22;6870;50.944;6.932;2024-01-15T15:57:08;18.50;34.00
7341;DHT22;6870;50.944;6.932;2024-01-15T15:59:36;18.80;33.50
7341;DHT22;6870;50.944;6.932;2024-01-15T16:02:04;18.80;34.20
7341;DHT22;6870;50.944;6.932;2024-01-15T16:04:32;18.70;33.80
7341;DHT22;6870;50.944;6.932;2024-01-15T16:07:01;18.50;34.00
7341;DHT22;6870;50.944;6.932;2024-01-15T16:09:31;18.90;33.80
7341;DHT22;6870;50.944;6.932;2024-01-15T16:12:00;18.60;34.20
7341;DHT22;6870;50.944;6.932;2024-01-15T16:14:28;19.00;33.40
7341;DHT22;6870;50.944;6.932;2024-01-15T16:16:57;18.90;34.30